createdAt,value
2022-10-20T00:00:22.703Z,1.43
2022-10-20T00:02:28.481Z,1.45
2022-10-20T00:04:33.684Z,1.5
2022-10-20T00:06:39.012Z,1.47
2022-10-20T00:08:44.226Z,1.45
2022-10-20T00:10:50.038Z,1.44
2022-10-20T00:12:56.326Z,1.41
2022-10-20T00:15:01.290Z,1.39
2022-10-20T00:17:06.304Z,1.43
2022-10-20T00:19:11.243Z,1.44
2022-10-20T00:21:16.395Z,1.38
2022-10-20T00:23:21.226Z,1.38
2022-10-20T00:25:26.690Z,1.38
2022-10-20T00:27:31.996Z,1.37
2022-10-20T00:29:37.394Z,1.4
2022-10-20T00:31:42.821Z,1.35
2022-10-20T00:33:48.185Z,1.34
2022-10-20T00:35:54.084Z,1.28
2022-10-20T00:38:00.180Z,1.25
2022-10-20T00:40:05.953Z,1.24
2022-10-20T00:42:14.812Z,1.18
2022-10-20T00:44:20.238Z,1.15
2022-10-20T00:46:25.568Z,1.18
2022-10-20T00:48:30.889Z,1.14
2022-10-20T00:50:36.005Z,1.19
2022-10-20T00:52:41.025Z,1.18
2022-10-20T00:54:45.997Z,1.17
2022-10-20T00:56:51.420Z,1.18
2022-10-20T00:58:56.831Z,1.21
2022-10-20T01:01:01.853Z,1.24
2022-10-20T01:03:07.154Z,1.2
2022-10-20T01:05:12.088Z,1.15
2022-10-20T01:07:17.198Z,1.11
2022-10-20T01:09:22.439Z,1.06
2022-10-20T01:11:28.891Z,1.01
2022-10-20T01:13:34.289Z,1
2022-10-20T01:15:39.316Z,0.96
2022-10-20T01:17:44.541Z,0.97
2022-10-20T01:19:49.944Z,0.97
2022-10-20T01:21:55.113Z,0.93
2022-10-20T01:24:00.371Z,0.91
2022-10-20T01:26:05.610Z,0.92
2022-10-20T01:28:10.691Z,0.86
2022-10-20T01:30:15.884Z,0.82
2022-10-20T01:32:21.004Z,0.77
2022-10-20T01:34:26.140Z,0.72
2022-10-20T01:36:31.562Z,0.74
2022-10-20T01:38:36.747Z,0.73
2022-10-20T01:40:41.764Z,0.71
2022-10-20T01:42:46.961Z,0.7
2022-10-20T01:44:52.394Z,0.68
2022-10-20T01:46:57.451Z,0.66
2022-10-20T01:49:02.515Z,0.66
2022-10-20T01:51:07.509Z,0.69
2022-10-20T01:53:12.852Z,0.6
2022-10-20T01:55:18.139Z,0.57
2022-10-20T01:57:23.201Z,0.54
2022-10-20T01:59:28.372Z,0.54
2022-10-20T02:01:33.645Z,0.53
2022-10-20T02:03:39.155Z,0.54
2022-10-20T02:05:44.390Z,0.57
2022-10-20T02:07:49.463Z,0.6
2022-10-20T02:12:00.078Z,0.61
2022-10-20T02:14:05.322Z,0.56
2022-10-20T02:16:10.404Z,0.55
2022-10-20T02:18:15.451Z,0.56
2022-10-20T02:20:21.048Z,0.53
2022-10-20T02:22:26.049Z,0.48
2022-10-20T02:24:31.237Z,0.46
2022-10-20T02:26:36.808Z,0.44
2022-10-20T02:28:41.712Z,0.45
2022-10-20T02:30:47.038Z,0.48
2022-10-20T02:32:52.436Z,0.46
2022-10-20T02:34:57.790Z,0.43
2022-10-20T02:37:09.749Z,0.4
2022-10-20T02:39:15.045Z,0.34
2022-10-20T02:41:20.047Z,0.3
2022-10-20T02:43:25.242Z,0.28
2022-10-20T02:45:30.653Z,0.25
2022-10-20T02:47:36.165Z,0.21
2022-10-20T02:49:42.797Z,0.18
2022-10-20T02:51:48.007Z,0.19
2022-10-20T02:53:53.250Z,0.18
2022-10-20T02:55:58.277Z,0.13
2022-10-20T02:58:03.635Z,0.04
2022-10-20T03:00:08.960Z,-0.04
2022-10-20T03:02:14.267Z,-0.14
2022-10-20T03:04:19.254Z,-0.22
2022-10-20T03:06:24.739Z,-0.25
2022-10-20T03:08:30.161Z,-0.21
2022-10-20T03:10:35.681Z,-0.14
2022-10-20T03:12:40.831Z,-0.05
2022-10-20T03:14:46.199Z,-0.09
2022-10-20T03:16:54.675Z,-0.18
2022-10-20T03:19:01.526Z,-0.26
2022-10-20T03:21:14.720Z,-0.3
2022-10-20T03:23:20.232Z,-0.29
2022-10-20T03:25:25.661Z,-0.22
2022-10-20T03:27:31.045Z,-0.17
2022-10-20T03:29:37.372Z,-0.13
2022-10-20T03:31:42.577Z,-0.15
2022-10-20T03:33:48.704Z,-0.21
2022-10-20T03:35:53.762Z,-0.16
2022-10-20T03:37:59.128Z,-0.2
2022-10-20T03:40:04.709Z,-0.31
2022-10-20T03:42:10.146Z,-0.41
2022-10-20T03:44:15.216Z,-0.46
2022-10-20T03:46:20.771Z,-0.45
2022-10-20T03:48:26.034Z,-0.5
2022-10-20T03:50:31.412Z,-0.55
2022-10-20T03:52:37.027Z,-0.61
2022-10-20T03:54:43.077Z,-0.67
2022-10-20T03:56:48.347Z,-0.6
2022-10-20T03:58:53.414Z,-0.47
2022-10-20T04:00:58.929Z,-0.37
2022-10-20T04:03:04.496Z,-0.3
2022-10-20T04:05:09.794Z,-0.28
2022-10-20T04:07:14.792Z,-0.28
2022-10-20T04:09:20.064Z,-0.28
2022-10-20T04:11:25.311Z,-0.33
2022-10-20T04:13:30.918Z,-0.39
2022-10-20T04:15:36.144Z,-0.45
2022-10-20T04:17:41.428Z,-0.5
2022-10-20T04:19:46.879Z,-0.51
2022-10-20T04:21:52.213Z,-0.55
2022-10-20T04:23:57.584Z,-0.58
2022-10-20T04:26:02.784Z,-0.62
2022-10-20T04:28:08.158Z,-0.64
2022-10-20T04:30:13.410Z,-0.67
2022-10-20T04:32:19.095Z,-0.75
2022-10-20T04:34:24.816Z,-0.78
2022-10-20T04:36:30.841Z,-0.81
2022-10-20T04:38:36.333Z,-0.84
2022-10-20T04:40:41.914Z,-0.87
2022-10-20T04:42:47.524Z,-0.86
2022-10-20T04:44:53.538Z,-0.9
2022-10-20T04:46:59.835Z,-0.9
2022-10-20T04:49:05.851Z,-0.89
2022-10-20T04:51:11.882Z,-0.86
2022-10-20T04:53:17.503Z,-0.83
2022-10-20T04:55:23.073Z,-0.82
2022-10-20T04:57:29.353Z,-0.82
2022-10-20T04:59:34.620Z,-0.78
2022-10-20T05:01:40.005Z,-0.77
2022-10-20T05:03:45.665Z,-0.8
2022-10-20T05:05:51.143Z,-0.84
2022-10-20T05:07:56.454Z,-0.9
2022-10-20T05:10:02.512Z,-0.93
2022-10-20T05:12:09.296Z,-0.91
2022-10-20T05:14:16.460Z,-0.93
2022-10-20T05:16:21.953Z,-0.93
2022-10-20T05:18:27.527Z,-0.96
2022-10-20T05:20:36.754Z,-0.99
2022-10-20T05:23:13.519Z,-0.95
2022-10-20T05:25:35.425Z,-0.9
2022-10-20T05:27:41.832Z,-0.87
2022-10-20T05:29:47.720Z,-0.86
2022-10-20T05:31:53.299Z,-0.87
2022-10-20T05:33:58.653Z,-0.89
2022-10-20T05:36:03.935Z,-0.88
2022-10-20T05:38:09.783Z,-0.84
2022-10-20T05:40:15.266Z,-0.79
2022-10-20T05:42:20.488Z,-0.71
2022-10-20T05:44:25.758Z,-0.67
2022-10-20T05:46:30.926Z,-0.67
2022-10-20T05:48:39.449Z,-0.65
2022-10-20T05:50:47.926Z,-0.69
2022-10-20T05:52:53.593Z,-0.72
2022-10-20T05:54:58.550Z,-0.75
2022-10-20T05:57:04.266Z,-0.69
2022-10-20T05:59:09.807Z,-0.69
2022-10-20T06:01:15.322Z,-0.67
2022-10-20T06:03:24.831Z,-0.61
2022-10-20T06:05:33.234Z,-0.53
2022-10-20T06:07:38.588Z,-0.47
2022-10-20T06:09:44.059Z,-0.45
2022-10-20T06:11:49.898Z,-0.47
2022-10-20T06:13:55.284Z,-0.4
2022-10-20T06:16:00.576Z,-0.27
2022-10-20T06:18:06.115Z,-0.17
2022-10-20T06:20:12.011Z,-0.12
2022-10-20T06:22:17.317Z,-0.09
2022-10-20T06:24:22.922Z,-0.03
2022-10-20T06:26:28.157Z,-0.02
2022-10-20T06:28:33.611Z,-0.01
2022-10-20T06:30:38.800Z,0.07
2022-10-20T06:32:43.951Z,0.15
2022-10-20T06:34:49.777Z,0.22
2022-10-20T06:36:55.246Z,0.24
2022-10-20T06:39:00.621Z,0.23
2022-10-20T06:41:05.698Z,0.26
2022-10-20T06:43:11.422Z,0.33
2022-10-20T06:45:17.140Z,0.47
2022-10-20T06:47:23.273Z,0.55
2022-10-20T06:49:28.361Z,0.66
2022-10-20T06:51:33.928Z,0.83
2022-10-20T06:53:41.459Z,0.88
2022-10-20T06:55:51.110Z,1.02
2022-10-20T06:57:56.374Z,1.06
2022-10-20T07:00:01.810Z,1.06
2022-10-20T07:02:07.348Z,1.18
2022-10-20T07:04:13.238Z,1.25
2022-10-20T07:06:18.694Z,1.41
2022-10-20T07:08:23.681Z,1.5
2022-10-20T07:10:29.261Z,1.63
2022-10-20T07:12:35.261Z,1.77
2022-10-20T07:14:41.939Z,1.88
2022-10-20T07:16:47.106Z,2.07
2022-10-20T07:18:52.287Z,2.37
2022-10-20T07:20:58.013Z,2.58
2022-10-20T07:23:03.205Z,2.66
2022-10-20T07:25:08.721Z,2.8
2022-10-20T07:27:13.999Z,2.8
2022-10-20T07:29:19.353Z,2.88
2022-10-20T07:31:24.999Z,2.96
2022-10-20T07:33:30.254Z,3.07
2022-10-20T07:35:35.413Z,3.24
2022-10-20T07:37:40.735Z,3.36
2022-10-20T07:39:46.347Z,3.4
2022-10-20T07:41:51.634Z,3.42
2022-10-20T07:43:57.442Z,3.52
2022-10-20T07:46:02.850Z,3.73
2022-10-20T07:48:08.025Z,3.89
2022-10-20T07:50:13.265Z,4.06
2022-10-20T07:52:22.591Z,4.16
2022-10-20T07:54:27.723Z,4.24
2022-10-20T07:56:33.114Z,4.28
2022-10-20T07:58:39.166Z,4.32
2022-10-20T08:00:44.325Z,4.47
2022-10-20T08:02:49.690Z,4.57
2022-10-20T08:04:55.178Z,4.69
2022-10-20T08:07:00.405Z,4.77
2022-10-20T08:09:05.559Z,4.85
2022-10-20T08:11:10.905Z,4.95
2022-10-20T08:13:16.237Z,4.99
2022-10-20T08:15:21.688Z,5.1
2022-10-20T08:17:26.795Z,5.17
2022-10-20T08:19:32.137Z,5.19
2022-10-20T08:22:03.453Z,5.3
2022-10-20T08:24:08.621Z,5.38
2022-10-20T08:26:15.243Z,5.54
2022-10-20T08:28:22.200Z,5.71
2022-10-20T08:30:31.261Z,5.91
2022-10-20T08:32:36.920Z,6.03
2022-10-20T08:34:43.067Z,6.07
2022-10-20T08:36:48.418Z,6.12
2022-10-20T08:38:53.860Z,6.21
2022-10-20T08:41:03.112Z,6.37
2022-10-20T08:43:08.110Z,6.68
2022-10-20T08:45:13.678Z,7
2022-10-20T08:47:18.934Z,7.4
2022-10-20T08:49:24.527Z,7.92
2022-10-20T08:51:29.647Z,7.92
2022-10-20T08:53:36.191Z,8.29
2022-10-20T08:55:41.518Z,9.24
2022-10-20T08:57:46.841Z,9.25
2022-10-20T08:59:52.104Z,9.07
2022-10-20T09:01:57.237Z,9.76
2022-10-20T09:04:03.166Z,10.95
2022-10-20T09:06:08.734Z,11.51
2022-10-20T09:08:14.517Z,12.99
2022-10-20T09:10:19.985Z,13.23
2022-10-20T09:12:28.748Z,13.68
2022-10-20T09:14:36.769Z,13.24
2022-10-20T09:16:55.627Z,13.73
2022-10-20T09:19:07.101Z,13.98
2022-10-20T09:21:12.338Z,14.51
2022-10-20T09:23:39.203Z,15.37
2022-10-20T09:25:47.425Z,15.56
2022-10-20T09:27:52.821Z,15.68
2022-10-20T09:29:58.337Z,15.69
2022-10-20T09:32:18.137Z,16.76
2022-10-20T09:34:52.134Z,15.78
2022-10-20T09:36:57.795Z,15.57
2022-10-20T09:39:03.399Z,14.12
2022-10-20T09:41:08.567Z,13.54
2022-10-20T09:43:14.472Z,12.79
2022-10-20T09:45:20.166Z,11.81
2022-10-20T09:47:25.988Z,11.56
2022-10-20T09:49:31.053Z,11.43
2022-10-20T09:51:36.215Z,11.15
2022-10-20T09:53:41.675Z,10.87
2022-10-20T09:55:47.897Z,11
2022-10-20T09:57:53.113Z,11.02
2022-10-20T10:00:01.340Z,11.2
2022-10-20T10:02:41.684Z,10.84
2022-10-20T10:04:48.503Z,10.53
2022-10-20T10:06:55.056Z,11.01
2022-10-20T10:09:00.614Z,11.18
2022-10-20T10:11:06.702Z,10.85
2022-10-20T10:13:12.192Z,10.65
2022-10-20T10:15:17.594Z,10.73
2022-10-20T10:17:22.637Z,10.95
2022-10-20T10:19:30.894Z,10.77
2022-10-20T10:21:36.555Z,10.57
2022-10-20T10:23:42.119Z,10.41
2022-10-20T10:25:47.684Z,10.59
2022-10-20T10:27:53.071Z,10.82
2022-10-20T10:29:58.294Z,10.92
2022-10-20T10:32:03.682Z,10.91
2022-10-20T10:34:09.064Z,10.57
2022-10-20T10:36:15.369Z,10.91
2022-10-20T10:38:20.591Z,10.74
2022-10-20T10:40:26.132Z,10.52
2022-10-20T10:42:32.563Z,10.09
2022-10-20T10:44:39.099Z,10.15
2022-10-20T10:46:45.596Z,10.01
2022-10-20T10:48:50.898Z,9.94
2022-10-20T10:50:56.293Z,10.04
2022-10-20T10:53:02.090Z,10.15
2022-10-20T10:55:07.446Z,10.34
2022-10-20T10:57:51.515Z,10.44
2022-10-20T10:59:57.188Z,10.5
2022-10-20T11:02:03.859Z,10.43
2022-10-20T11:04:09.604Z,10.35
2022-10-20T11:06:14.914Z,10.52
2022-10-20T11:08:20.387Z,10.69
2022-10-20T11:10:25.738Z,10.79
2022-10-20T11:12:31.264Z,10.99
2022-10-20T11:14:36.536Z,11.09
2022-10-20T11:16:43.193Z,11.68
2022-10-20T11:18:48.337Z,12.12
2022-10-20T11:20:55.088Z,11.79
2022-10-20T11:23:00.517Z,11.79
2022-10-20T11:25:06.736Z,11.63
2022-10-20T11:27:13.366Z,11.74
2022-10-20T11:29:18.703Z,11.84
2022-10-20T11:31:23.980Z,12.17
2022-10-20T11:33:29.442Z,12.23
2022-10-20T11:35:38.952Z,11.93
2022-10-20T11:37:44.729Z,11.84
2022-10-20T11:39:50.752Z,11.87
2022-10-20T11:41:56.230Z,11.66
2022-10-20T11:44:01.728Z,11.45
2022-10-20T11:46:07.171Z,11.06
2022-10-20T11:48:12.698Z,11.48
2022-10-20T11:50:18.016Z,11.77
2022-10-20T11:52:26.617Z,11.96
2022-10-20T11:54:31.746Z,12.08
2022-10-20T11:56:37.321Z,12.04
2022-10-20T11:58:42.872Z,11.57
2022-10-20T12:00:48.671Z,11.66
2022-10-20T12:02:59.577Z,11.52
2022-10-20T12:05:05.366Z,11.8
2022-10-20T12:07:10.892Z,11.67
2022-10-20T12:09:16.600Z,11.67
2022-10-20T12:11:23.111Z,11.65
2022-10-20T12:13:28.512Z,11.53
2022-10-20T12:15:33.973Z,11.31
2022-10-20T12:17:39.404Z,11.35
2022-10-20T12:19:45.096Z,11.22
2022-10-20T12:21:50.461Z,11.16
2022-10-20T12:23:55.742Z,11.4
2022-10-20T12:26:01.099Z,11.44
2022-10-20T12:28:10.167Z,11.43
2022-10-20T12:30:15.445Z,11.51
2022-10-20T12:32:21.346Z,11.3
2022-10-20T12:34:27.688Z,11.27
2022-10-20T12:36:32.938Z,11.03
2022-10-20T12:38:38.383Z,10.91
2022-10-20T12:40:43.585Z,10.95
2022-10-20T12:42:50.054Z,10.92
2022-10-20T12:44:55.495Z,10.84
2022-10-20T12:47:00.695Z,10.59
2022-10-20T12:49:06.755Z,10.38
2022-10-20T12:51:16.592Z,10.44
2022-10-20T12:53:22.006Z,10.47
2022-10-20T12:55:27.368Z,10.38
2022-10-20T12:57:37.201Z,10.18
2022-10-20T12:59:43.498Z,9.99
2022-10-20T13:01:48.868Z,9.85
2022-10-20T13:03:54.115Z,9.84
2022-10-20T13:05:59.444Z,9.72
2022-10-20T13:08:04.790Z,9.62
2022-10-20T13:10:11.296Z,9.61
2022-10-20T13:12:17.080Z,9.61
2022-10-20T13:14:22.171Z,9.65
2022-10-20T13:16:27.616Z,9.65
2022-10-20T13:18:32.630Z,9.65
2022-10-20T13:20:38.159Z,9.54
2022-10-20T13:22:43.305Z,9.48
2022-10-20T13:24:48.963Z,9.33
2022-10-20T13:26:59.914Z,9.26
2022-10-20T13:29:05.671Z,9.17
2022-10-20T13:31:11.392Z,9.08
2022-10-20T13:33:33.625Z,8.95
2022-10-20T13:36:10.560Z,8.82
2022-10-20T13:38:15.815Z,8.79
2022-10-20T13:40:23.698Z,8.71
2022-10-20T13:42:29.668Z,8.6
2022-10-20T13:44:34.918Z,8.63
2022-10-20T13:46:41.137Z,8.64
2022-10-20T13:48:46.936Z,8.6
2022-10-20T13:50:54.074Z,8.59
2022-10-20T13:53:01.184Z,8.47
2022-10-20T13:55:07.562Z,8.37
2022-10-20T13:57:13.141Z,8.31
2022-10-20T13:59:18.447Z,8.26
2022-10-20T14:01:24.960Z,8.2
2022-10-20T14:03:31.227Z,8.15
2022-10-20T14:05:37.081Z,8.15
2022-10-20T14:07:42.672Z,8.1
2022-10-20T14:09:48.507Z,8.06
2022-10-20T14:12:00.480Z,8.05
2022-10-20T14:14:06.678Z,8.03
2022-10-20T14:16:12.758Z,8.07
2022-10-20T14:18:18.299Z,8.11
2022-10-20T14:20:23.439Z,8.17
2022-10-20T14:22:28.888Z,8.18
2022-10-20T14:24:34.643Z,8.21
2022-10-20T14:26:40.549Z,8.29
2022-10-20T14:28:45.907Z,8.29
2022-10-20T14:30:51.679Z,8.35
2022-10-20T14:32:57.417Z,8.4
2022-10-20T14:35:03.142Z,8.38
2022-10-20T14:37:09.110Z,8.38
2022-10-20T14:39:15.168Z,8.32
2022-10-20T14:41:20.738Z,8.27
2022-10-20T14:43:26.355Z,8.21
2022-10-20T14:47:38.126Z,8.06
2022-10-20T14:49:44.071Z,7.96
2022-10-20T14:51:56.124Z,7.9
2022-10-20T14:54:02.168Z,7.84
2022-10-20T14:56:08.162Z,7.73
2022-10-20T14:58:15.709Z,7.63
2022-10-20T15:00:23.463Z,7.52
2022-10-20T15:02:29.771Z,7.42
2022-10-20T15:04:36.921Z,7.29
2022-10-20T15:06:42.456Z,7.12
2022-10-20T15:08:48.260Z,6.94
2022-10-20T15:10:55.010Z,6.78
2022-10-20T15:13:01.400Z,6.61
2022-10-20T15:15:07.904Z,6.43
2022-10-20T15:17:14.069Z,6.28
2022-10-20T15:19:20.282Z,6.13
2022-10-20T15:21:26.614Z,5.98
2022-10-20T15:23:32.916Z,5.83
2022-10-20T15:25:39.114Z,5.67
2022-10-20T15:27:45.306Z,5.5
2022-10-20T15:29:51.491Z,5.32
2022-10-20T15:31:57.722Z,5.18
2022-10-20T15:34:04.053Z,5.03
2022-10-20T15:36:10.943Z,4.9
2022-10-20T15:38:18.919Z,4.76
2022-10-20T15:40:25.247Z,4.6
2022-10-20T15:42:32.353Z,4.46
2022-10-20T15:44:39.810Z,4.3
2022-10-20T15:46:46.509Z,4.15
2022-10-20T15:48:53.061Z,4
2022-10-20T15:51:00.346Z,3.83
2022-10-20T15:53:07.436Z,3.77
2022-10-20T15:55:14.012Z,3.62
2022-10-20T15:57:21.205Z,3.44
2022-10-20T15:59:27.899Z,3.3
2022-10-20T16:01:34.260Z,3.26
2022-10-20T16:03:41.890Z,3.21
2022-10-20T16:05:49.836Z,3.17
2022-10-20T16:07:56.494Z,3.1
2022-10-20T16:10:02.703Z,2.97
2022-10-20T16:12:11.008Z,2.82
2022-10-20T16:14:17.428Z,2.75
2022-10-20T16:16:24.866Z,2.66
2022-10-20T16:18:32.064Z,2.62
2022-10-20T16:20:39.640Z,2.69
2022-10-20T16:22:47.913Z,2.72
2022-10-20T16:24:57.113Z,2.69
2022-10-20T16:27:04.507Z,2.6
2022-10-20T16:29:11.988Z,2.52
2022-10-20T16:31:17.915Z,2.44
2022-10-20T16:33:24.146Z,2.32
2022-10-20T16:35:31.195Z,2.22
2022-10-20T16:37:38.877Z,2.07
2022-10-20T16:39:46.832Z,2.05
2022-10-20T16:41:56.115Z,2.04
2022-10-20T16:44:03.685Z,1.9
2022-10-20T16:46:11.265Z,1.8
2022-10-20T16:48:18.597Z,1.7
2022-10-20T16:50:27.049Z,1.65
2022-10-20T16:52:34.263Z,1.57
2022-10-20T16:56:50.598Z,1.51
2022-10-20T16:58:59.493Z,1.37
2022-10-20T17:01:09.151Z,1.26
2022-10-20T17:03:20.322Z,1.3
2022-10-20T17:05:29.832Z,1.3
2022-10-20T17:07:47.637Z,1.42
2022-10-20T17:09:57.409Z,1.4
2022-10-20T17:12:06.303Z,1.23
2022-10-20T17:14:16.846Z,1.15
2022-10-20T17:16:26.321Z,1.18
2022-10-20T17:18:36.871Z,1.14
2022-10-20T17:20:45.753Z,1.07
2022-10-20T17:22:56.675Z,1.12
2022-10-20T17:25:06.116Z,1.18
2022-10-20T17:27:17.902Z,1.15
2022-10-20T17:29:28.820Z,1.06
2022-10-20T17:31:39.634Z,1
2022-10-20T17:33:52.264Z,0.87
2022-10-20T17:36:06.074Z,0.9
2022-10-20T17:38:16.573Z,0.94
2022-10-20T17:40:26.464Z,0.93
2022-10-20T17:42:40.798Z,0.95
2022-10-20T17:44:50.354Z,0.94
2022-10-20T17:46:58.505Z,0.86
2022-10-20T17:49:09.521Z,0.85
2022-10-20T17:51:24.554Z,0.8
2022-10-20T17:53:42.520Z,0.73
2022-10-20T17:55:52.805Z,0.7
2022-10-20T17:58:10.714Z,0.66
2022-10-20T18:00:26.942Z,0.63
2022-10-20T18:03:10.973Z,0.63
2022-10-20T18:05:21.616Z,0.59
2022-10-20T18:07:35.342Z,0.54
2022-10-20T18:09:46.421Z,0.43
2022-10-20T18:12:00.878Z,0.43
2022-10-20T18:14:12.511Z,0.4
2022-10-20T18:16:24.125Z,0.32
2022-10-20T18:18:38.586Z,0.26
2022-10-20T18:20:57.001Z,0.28
2022-10-20T18:23:11.730Z,0.23
2022-10-20T18:25:20.428Z,0.2
2022-10-20T18:27:30.884Z,0.18
2022-10-20T18:29:41.633Z,0.19
2022-10-20T18:31:50.551Z,0.2
2022-10-20T18:34:04.326Z,0.21
2022-10-20T18:36:24.581Z,0.11
2022-10-20T18:38:35.350Z,0.02
2022-10-20T18:40:54.006Z,0.05
2022-10-20T18:43:13.274Z,0.06
2022-10-20T18:45:25.866Z,-0.01
2022-10-20T18:47:36.617Z,-0.01
2022-10-20T18:49:56.004Z,-0.01
2022-10-20T18:52:05.637Z,-0.07
2022-10-20T18:54:22.984Z,-0.13
2022-10-20T18:56:35.406Z,-0.14
2022-10-20T18:58:45.426Z,-0.25
2022-10-20T19:00:57.920Z,-0.29
2022-10-20T19:03:09.814Z,-0.26
2022-10-20T19:05:28.576Z,-0.34
2022-10-20T19:07:43.857Z,-0.38
2022-10-20T19:09:55.455Z,-0.41
2022-10-20T19:12:08.251Z,-0.39
2022-10-20T19:19:14.584Z,-0.43
2022-10-20T19:21:32.293Z,-0.44
2022-10-20T19:23:49.068Z,-0.49
2022-10-20T19:25:59.850Z,-0.46
2022-10-20T19:28:16.094Z,-0.41
2022-10-20T19:30:33.428Z,-0.37
2022-10-20T19:32:43.845Z,-0.33
2022-10-20T19:34:54.850Z,-0.36
2022-10-20T19:37:09.249Z,-0.42
2022-10-20T19:39:19.732Z,-0.47
2022-10-20T19:41:29.474Z,-0.52
2022-10-20T19:43:39.962Z,-0.53
2022-10-20T19:45:55.198Z,-0.54
2022-10-20T19:48:06.719Z,-0.54
2022-10-20T19:50:15.720Z,-0.55
2022-10-20T19:52:30.011Z,-0.61
2022-10-20T19:54:42.099Z,-0.69
2022-10-20T19:56:53.146Z,-0.76
2022-10-20T19:59:07.574Z,-0.77
2022-10-20T20:01:15.616Z,-0.78
2022-10-20T20:03:23.713Z,-0.77
2022-10-20T20:05:31.750Z,-0.77
2022-10-20T20:07:42.327Z,-0.76
2022-10-20T20:09:51.640Z,-0.77
2022-10-20T20:11:59.798Z,-0.77
2022-10-20T20:14:09.254Z,-0.75
2022-10-20T20:16:17.125Z,-0.73
2022-10-20T20:18:25.783Z,-0.73
2022-10-20T20:20:34.243Z,-0.68
2022-10-20T20:22:42.732Z,-0.67
2022-10-20T20:24:50.788Z,-0.66
2022-10-20T20:26:58.835Z,-0.66
2022-10-20T20:29:06.187Z,-0.7
2022-10-20T20:31:17.469Z,-0.71
2022-10-20T20:33:26.909Z,-0.7
2022-10-20T20:35:35.755Z,-0.72
2022-10-20T20:37:43.086Z,-0.73
2022-10-20T20:39:49.253Z,-0.73
2022-10-20T20:41:57.198Z,-0.76
2022-10-20T20:44:07.874Z,-0.77
2022-10-20T20:46:15.425Z,-0.76
2022-10-20T20:48:22.996Z,-0.75
2022-10-20T20:50:29.442Z,-0.76
2022-10-20T20:52:37.487Z,-0.76
2022-10-20T20:54:43.833Z,-0.76
2022-10-20T20:56:50.373Z,-0.75
2022-10-20T20:58:56.488Z,-0.79
2022-10-20T21:01:02.619Z,-0.81
2022-10-20T21:03:08.976Z,-0.81
2022-10-20T21:05:15.482Z,-0.83
2022-10-20T21:07:21.862Z,-0.86
2022-10-20T21:09:28.415Z,-0.87
2022-10-20T21:11:34.631Z,-0.89
2022-10-20T21:13:40.735Z,-0.9
2022-10-20T21:15:46.848Z,-0.88
2022-10-20T21:17:53.296Z,-0.89
2022-10-20T21:19:59.572Z,-0.9
2022-10-20T21:22:05.307Z,-0.9
2022-10-20T21:24:11.382Z,-0.89
2022-10-20T21:26:17.880Z,-0.9
2022-10-20T21:28:23.872Z,-0.93
2022-10-20T21:32:36.172Z,-0.99
2022-10-20T21:34:42.826Z,-1.01
2022-10-20T21:36:48.089Z,-1.07
2022-10-20T21:38:53.869Z,-1.07
2022-10-20T21:41:00.098Z,-1.06
2022-10-20T21:43:06.050Z,-1.08
2022-10-20T21:45:14.322Z,-1.06
2022-10-20T21:47:24.298Z,-1.08
2022-10-20T21:49:30.815Z,-1.12
2022-10-20T21:51:37.048Z,-1.14
2022-10-20T21:53:42.534Z,-1.15
2022-10-20T21:55:48.144Z,-1.2
2022-10-20T21:57:53.821Z,-1.22
2022-10-20T21:59:59.194Z,-1.23
2022-10-20T22:02:05.178Z,-1.21
2022-10-20T22:04:11.149Z,-1.2
2022-10-20T22:06:17.202Z,-1.18
2022-10-20T22:08:23.091Z,-1.18
2022-10-20T22:10:28.951Z,-1.22
2022-10-20T22:14:41.536Z,-1.3
2022-10-20T22:16:51.404Z,-1.34
2022-10-20T22:18:56.771Z,-1.34
2022-10-20T22:21:01.782Z,-1.37
2022-10-20T22:23:13.002Z,-1.35
2022-10-20T22:25:18.389Z,-1.34
2022-10-20T22:27:31.261Z,-1.35
2022-10-20T22:29:47.258Z,-1.39
2022-10-20T22:31:59.150Z,-1.39
2022-10-20T22:34:04.275Z,-1.43
2022-10-20T22:36:09.707Z,-1.44
2022-10-20T22:38:15.304Z,-1.45
2022-10-20T22:40:20.692Z,-1.46
2022-10-20T22:42:25.737Z,-1.47
2022-10-20T22:44:30.889Z,-1.46
2022-10-20T22:46:36.198Z,-1.49
2022-10-20T22:48:42.010Z,-1.48
2022-10-20T22:50:47.525Z,-1.49
2022-10-20T22:52:53.049Z,-1.54
2022-10-20T22:54:58.501Z,-1.56
2022-10-20T22:57:03.667Z,-1.56
2022-10-20T22:59:09.165Z,-1.57
2022-10-20T23:01:14.657Z,-1.55
2022-10-20T23:03:20.195Z,-1.55
2022-10-20T23:05:25.317Z,-1.54
2022-10-20T23:07:33.630Z,-1.52
2022-10-20T23:09:40.221Z,-1.5
2022-10-20T23:11:45.565Z,-1.51
2022-10-20T23:13:50.666Z,-1.56
2022-10-20T23:15:55.995Z,-1.58
2022-10-20T23:18:01.084Z,-1.58
2022-10-20T23:20:06.317Z,-1.57
2022-10-20T23:22:11.510Z,-1.57
2022-10-20T23:24:16.973Z,-1.58
2022-10-20T23:26:22.078Z,-1.57
2022-10-20T23:28:27.232Z,-1.59
2022-10-20T23:30:32.533Z,-1.61
2022-10-20T23:32:38.195Z,-1.63
2022-10-20T23:34:43.382Z,-1.58
2022-10-20T23:36:49.077Z,-1.59
2022-10-20T23:38:54.308Z,-1.6
2022-10-20T23:40:59.493Z,-1.63
2022-10-20T23:43:05.261Z,-1.67
2022-10-20T23:45:10.823Z,-1.71
2022-10-20T23:47:16.370Z,-1.73
2022-10-20T23:49:22.037Z,-1.78
2022-10-20T23:51:27.243Z,-1.82
2022-10-20T23:53:32.475Z,-1.81
2022-10-20T23:55:41.102Z,-1.8
2022-10-20T23:57:46.240Z,-1.8
2022-10-20T23:59:51.418Z,-1.75
